sensor_id;sensor_type;location;lat;lon;timestamp;P1;durP1;ratioP1;P2;durP2;ratioP2
17953;SDS011;9102;53.548;9.926;2023-05-02T00:00:46;29.45;;;16.48;;
17953;SDS011;9102;53.548;9.926;2023-05-02T00:03:13;33.00;;;17.50;;
17953;SDS011;9102;53.548;9.926;2023-05-02T00:05:42;27.33;;;16.08;;
17953;SDS011;9102;53.548;9.926;2023-05-02T00:08:09;34.08;;;18.50;;
17953;SDS011;9102;53.548;9.926;2023-05-02T00:10:37;29.08;;;17.10;;
17953;SDS011;9102;53.548;9.926;2023-05-02T00:13:04;30.23;;;17.10;;
17953;SDS011;9102;53.548;9.926;2023-05-02T00:15:31;27.95;;;16.75;;
17953;SDS011;9102;53.548;9.926;2023-05-02T00:17:58;31.73;;;18.45;;
17953;SDS011;9102;53.548;9.926;2023-05-02T00:20:25;29.30;;;17.63;;
17953;SDS011;9102;53.548;9.926;2023-05-02T00:22:53;29.25;;;17.02;;
17953;SDS011;9102;53.548;9.926;2023-05-02T00:27:51;29.65;;;17.95;;
17953;SDS011;9102;53.548;9.926;2023-05-02T00:30:18;30.17;;;17.83;;
17953;SDS011;9102;53.548;9.926;2023-05-02T00:32:45;31.25;;;18.63;;
17953;SDS011;9102;53.548;9.926;2023-05-02T00:35:13;33.45;;;18.15;;
17953;SDS011;9102;53.548;9.926;2023-05-02T00:37:40;34.15;;;19.65;;
17953;SDS011;9102;53.548;9.926;2023-05-02T00:40:09;35.55;;;19.35;;
17953;SDS011;9102;53.548;9.926;2023-05-02T00:42:36;33.15;;;19.60;;
17953;SDS011;9102;53.548;9.926;2023-05-02T00:45:04;34.33;;;19.50;;
17953;SDS011;9102;53.548;9.926;2023-05-02T00:47:33;36.05;;;19.92;;
17953;SDS011;9102;53.548;9.926;2023-05-02T00:50:00;38.70;;;19.58;;
17953;SDS011;9102;53.548;9.926;2023-05-02T00:52:29;37.17;;;19.52;;
17953;SDS011;9102;53.548;9.926;2023-05-02T00:54:58;33.92;;;18.90;;
17953;SDS011;9102;53.548;9.926;2023-05-02T00:57:27;33.63;;;19.58;;
17953;SDS011;9102;53.548;9.926;2023-05-02T00:59:54;34.00;;;19.58;;
17953;SDS011;9102;53.548;9.926;2023-05-02T01:02:24;35.83;;;20.52;;
17953;SDS011;9102;53.548;9.926;2023-05-02T01:04:59;37.00;;;20.45;;
17953;SDS011;9102;53.548;9.926;2023-05-02T01:07:40;37.95;;;20.23;;
17953;SDS011;9102;53.548;9.926;2023-05-02T01:10:21;33.90;;;18.98;;
17953;SDS011;9102;53.548;9.926;2023-05-02T01:12:57;37.72;;;20.77;;
17953;SDS011;9102;53.548;9.926;2023-05-02T01:15:27;33.40;;;19.13;;
17953;SDS011;9102;53.548;9.926;2023-05-02T01:17:56;32.17;;;17.92;;
17953;SDS011;9102;53.548;9.926;2023-05-02T01:20:26;36.38;;;19.15;;
17953;SDS011;9102;53.548;9.926;2023-05-02T01:22:55;34.35;;;19.23;;
17953;SDS011;9102;53.548;9.926;2023-05-02T01:25:30;32.53;;;18.40;;
17953;SDS011;9102;53.548;9.926;2023-05-02T01:28:15;34.08;;;17.75;;
17953;SDS011;9102;53.548;9.926;2023-05-02T01:30:55;28.48;;;15.80;;
17953;SDS011;9102;53.548;9.926;2023-05-02T01:33:22;24.05;;;13.63;;
17953;SDS011;9102;53.548;9.926;2023-05-02T01:35:52;20.80;;;11.93;;
17953;SDS011;9102;53.548;9.926;2023-05-02T01:38:21;23.80;;;12.02;;
17953;SDS011;9102;53.548;9.926;2023-05-02T01:40:49;24.52;;;11.93;;
17953;SDS011;9102;53.548;9.926;2023-05-02T01:43:17;22.75;;;11.27;;
17953;SDS011;9102;53.548;9.926;2023-05-02T01:45:46;23.83;;;11.23;;
17953;SDS011;9102;53.548;9.926;2023-05-02T01:48:16;22.98;;;10.63;;
17953;SDS011;9102;53.548;9.926;2023-05-02T01:50:48;20.38;;;10.40;;
17953;SDS011;9102;53.548;9.926;2023-05-02T01:53:17;23.25;;;10.55;;
17953;SDS011;9102;53.548;9.926;2023-05-02T01:55:46;21.65;;;11.13;;
17953;SDS011;9102;53.548;9.926;2023-05-02T01:58:16;24.90;;;11.20;;
17953;SDS011;9102;53.548;9.926;2023-05-02T02:00:45;24.17;;;10.95;;
17953;SDS011;9102;53.548;9.926;2023-05-02T02:03:13;22.73;;;10.30;;
17953;SDS011;9102;53.548;9.926;2023-05-02T02:05:43;22.73;;;10.88;;
17953;SDS011;9102;53.548;9.926;2023-05-02T02:08:13;22.13;;;10.27;;
17953;SDS011;9102;53.548;9.926;2023-05-02T02:10:42;20.35;;;9.57;;
17953;SDS011;9102;53.548;9.926;2023-05-02T02:13:15;22.65;;;9.98;;
17953;SDS011;9102;53.548;9.926;2023-05-02T02:15:44;16.33;;;8.68;;
17953;SDS011;9102;53.548;9.926;2023-05-02T02:18:17;16.35;;;8.02;;
17953;SDS011;9102;53.548;9.926;2023-05-02T02:20:47;18.35;;;9.35;;
17953;SDS011;9102;53.548;9.926;2023-05-02T02:23:15;21.30;;;9.70;;
17953;SDS011;9102;53.548;9.926;2023-05-02T02:25:47;23.00;;;9.00;;
17953;SDS011;9102;53.548;9.926;2023-05-02T02:28:16;17.45;;;7.32;;
17953;SDS011;9102;53.548;9.926;2023-05-02T02:30:43;13.65;;;7.45;;
17953;SDS011;9102;53.548;9.926;2023-05-02T02:33:10;9.88;;;5.75;;
17953;SDS011;9102;53.548;9.926;2023-05-02T02:35:39;14.32;;;6.43;;
17953;SDS011;9102;53.548;9.926;2023-05-02T02:38:10;10.90;;;6.55;;
17953;SDS011;9102;53.548;9.926;2023-05-02T02:40:44;11.45;;;6.75;;
17953;SDS011;9102;53.548;9.926;2023-05-02T02:43:19;15.63;;;9.20;;
17953;SDS011;9102;53.548;9.926;2023-05-02T02:45:54;14.35;;;8.20;;
17953;SDS011;9102;53.548;9.926;2023-05-02T02:48:39;18.33;;;8.90;;
17953;SDS011;9102;53.548;9.926;2023-05-02T02:51:11;20.33;;;8.55;;
17953;SDS011;9102;53.548;9.926;2023-05-02T02:53:50;15.55;;;6.80;;
17953;SDS011;9102;53.548;9.926;2023-05-02T02:56:25;16.80;;;6.60;;
17953;SDS011;9102;53.548;9.926;2023-05-02T02:58:54;16.65;;;6.07;;
17953;SDS011;9102;53.548;9.926;2023-05-02T03:01:26;18.90;;;4.15;;
17953;SDS011;9102;53.548;9.926;2023-05-02T03:03:57;13.57;;;4.88;;
17953;SDS011;9102;53.548;9.926;2023-05-02T03:06:25;23.77;;;4.47;;
17953;SDS011;9102;53.548;9.926;2023-05-02T03:08:54;17.05;;;4.47;;
17953;SDS011;9102;53.548;9.926;2023-05-02T03:11:23;22.08;;;4.40;;
17953;SDS011;9102;53.548;9.926;2023-05-02T03:13:50;17.17;;;4.40;;
17953;SDS011;9102;53.548;9.926;2023-05-02T03:16:23;20.23;;;4.88;;
17953;SDS011;9102;53.548;9.926;2023-05-02T03:19:00;18.15;;;4.38;;
17953;SDS011;9102;53.548;9.926;2023-05-02T03:21:29;11.02;;;3.60;;
17953;SDS011;9102;53.548;9.926;2023-05-02T03:23:57;11.82;;;3.58;;
17953;SDS011;9102;53.548;9.926;2023-05-02T03:26:25;17.13;;;4.63;;
17953;SDS011;9102;53.548;9.926;2023-05-02T03:28:53;23.10;;;5.07;;
17953;SDS011;9102;53.548;9.926;2023-05-02T03:31:20;19.58;;;4.20;;
17953;SDS011;9102;53.548;9.926;2023-05-02T03:33:47;27.33;;;5.18;;
17953;SDS011;9102;53.548;9.926;2023-05-02T03:36:15;15.90;;;4.22;;
17953;SDS011;9102;53.548;9.926;2023-05-02T03:38:44;20.67;;;4.65;;
17953;SDS011;9102;53.548;9.926;2023-05-02T03:41:10;23.83;;;5.07;;
17953;SDS011;9102;53.548;9.926;2023-05-02T03:43:39;35.17;;;7.05;;
17953;SDS011;9102;53.548;9.926;2023-05-02T03:46:07;24.95;;;5.40;;
17953;SDS011;9102;53.548;9.926;2023-05-02T03:48:35;30.83;;;5.28;;
17953;SDS011;9102;53.548;9.926;2023-05-02T03:51:04;29.17;;;5.68;;
17953;SDS011;9102;53.548;9.926;2023-05-02T03:53:33;22.45;;;5.38;;
17953;SDS011;9102;53.548;9.926;2023-05-02T03:56:02;29.55;;;5.75;;
17953;SDS011;9102;53.548;9.926;2023-05-02T03:58:30;24.90;;;4.93;;
17953;SDS011;9102;53.548;9.926;2023-05-02T04:00:57;27.27;;;5.22;;
17953;SDS011;9102;53.548;9.926;2023-05-02T04:03:24;33.22;;;5.85;;
17953;SDS011;9102;53.548;9.926;2023-05-02T04:05:52;25.15;;;6.18;;
17953;SDS011;9102;53.548;9.926;2023-05-02T04:08:20;19.80;;;5.25;;
17953;SDS011;9102;53.548;9.926;2023-05-02T04:10:49;28.30;;;5.35;;
17953;SDS011;9102;53.548;9.926;2023-05-02T04:13:17;19.75;;;4.68;;
17953;SDS011;9102;53.548;9.926;2023-05-02T04:15:45;27.90;;;4.93;;
17953;SDS011;9102;53.548;9.926;2023-05-02T04:18:13;25.15;;;5.00;;
17953;SDS011;9102;53.548;9.926;2023-05-02T04:20:41;21.77;;;4.90;;
17953;SDS011;9102;53.548;9.926;2023-05-02T04:23:09;28.02;;;4.55;;
17953;SDS011;9102;53.548;9.926;2023-05-02T04:25:36;24.02;;;4.30;;
17953;SDS011;9102;53.548;9.926;2023-05-02T04:28:04;25.92;;;4.55;;
17953;SDS011;9102;53.548;9.926;2023-05-02T04:30:32;22.75;;;4.63;;
17953;SDS011;9102;53.548;9.926;2023-05-02T04:32:59;22.15;;;4.70;;
17953;SDS011;9102;53.548;9.926;2023-05-02T04:35:26;28.67;;;4.35;;
17953;SDS011;9102;53.548;9.926;2023-05-02T04:37:53;25.10;;;4.85;;
17953;SDS011;9102;53.548;9.926;2023-05-02T04:40:20;28.23;;;4.50;;
17953;SDS011;9102;53.548;9.926;2023-05-02T04:42:47;21.63;;;4.18;;
17953;SDS011;9102;53.548;9.926;2023-05-02T04:45:14;29.92;;;5.30;;
17953;SDS011;9102;53.548;9.926;2023-05-02T04:47:43;21.23;;;4.00;;
17953;SDS011;9102;53.548;9.926;2023-05-02T04:50:10;21.02;;;4.45;;
17953;SDS011;9102;53.548;9.926;2023-05-02T04:52:36;17.10;;;4.45;;
17953;SDS011;9102;53.548;9.926;2023-05-02T04:55:04;23.02;;;4.47;;
17953;SDS011;9102;53.548;9.926;2023-05-02T04:57:33;20.58;;;4.07;;
17953;SDS011;9102;53.548;9.926;2023-05-02T04:59:59;20.05;;;4.03;;
17953;SDS011;9102;53.548;9.926;2023-05-02T05:02:26;30.17;;;4.63;;
17953;SDS011;9102;53.548;9.926;2023-05-02T05:04:55;21.77;;;4.15;;
17953;SDS011;9102;53.548;9.926;2023-05-02T05:07:21;27.42;;;4.38;;
17953;SDS011;9102;53.548;9.926;2023-05-02T05:09:49;27.80;;;4.78;;
17953;SDS011;9102;53.548;9.926;2023-05-02T05:12:16;23.45;;;4.30;;
17953;SDS011;9102;53.548;9.926;2023-05-02T05:14:44;27.75;;;4.82;;
17953;SDS011;9102;53.548;9.926;2023-05-02T05:17:10;24.20;;;4.60;;
17953;SDS011;9102;53.548;9.926;2023-05-02T05:19:37;23.58;;;4.07;;
17953;SDS011;9102;53.548;9.926;2023-05-02T05:22:05;25.58;;;5.25;;
17953;SDS011;9102;53.548;9.926;2023-05-02T05:24:33;28.25;;;4.32;;
17953;SDS011;9102;53.548;9.926;2023-05-02T05:27:01;25.25;;;5.43;;
17953;SDS011;9102;53.548;9.926;2023-05-02T05:29:31;23.70;;;4.25;;
17953;SDS011;9102;53.548;9.926;2023-05-02T05:31:58;20.30;;;3.75;;
17953;SDS011;9102;53.548;9.926;2023-05-02T05:34:25;19.55;;;4.45;;
17953;SDS011;9102;53.548;9.926;2023-05-02T05:36:52;29.60;;;5.20;;
17953;SDS011;9102;53.548;9.926;2023-05-02T05:39:20;17.67;;;4.10;;
17953;SDS011;9102;53.548;9.926;2023-05-02T05:41:49;16.90;;;4.00;;
17953;SDS011;9102;53.548;9.926;2023-05-02T05:44:16;13.70;;;3.65;;
17953;SDS011;9102;53.548;9.926;2023-05-02T05:46:45;25.55;;;3.78;;
17953;SDS011;9102;53.548;9.926;2023-05-02T05:49:14;18.23;;;3.78;;
17953;SDS011;9102;53.548;9.926;2023-05-02T05:51:41;17.08;;;3.80;;
17953;SDS011;9102;53.548;9.926;2023-05-02T05:54:11;18.77;;;4.10;;
17953;SDS011;9102;53.548;9.926;2023-05-02T05:56:40;16.58;;;3.90;;
17953;SDS011;9102;53.548;9.926;2023-05-02T05:59:07;14.93;;;4.25;;
17953;SDS011;9102;53.548;9.926;2023-05-02T06:01:34;15.90;;;4.70;;
17953;SDS011;9102;53.548;9.926;2023-05-02T06:04:02;17.25;;;5.78;;
17953;SDS011;9102;53.548;9.926;2023-05-02T06:06:30;15.98;;;5.72;;
17953;SDS011;9102;53.548;9.926;2023-05-02T06:08:57;15.40;;;4.80;;
17953;SDS011;9102;53.548;9.926;2023-05-02T06:11:24;19.45;;;5.18;;
17953;SDS011;9102;53.548;9.926;2023-05-02T06:13:53;12.02;;;4.70;;
17953;SDS011;9102;53.548;9.926;2023-05-02T06:16:20;16.60;;;4.47;;
17953;SDS011;9102;53.548;9.926;2023-05-02T06:18:48;20.23;;;4.18;;
17953;SDS011;9102;53.548;9.926;2023-05-02T06:21:17;17.33;;;4.70;;
17953;SDS011;9102;53.548;9.926;2023-05-02T06:23:44;15.77;;;3.17;;
17953;SDS011;9102;53.548;9.926;2023-05-02T06:26:11;11.35;;;2.95;;
17953;SDS011;9102;53.548;9.926;2023-05-02T06:28:38;11.52;;;2.90;;
17953;SDS011;9102;53.548;9.926;2023-05-02T06:31:07;12.82;;;3.30;;
17953;SDS011;9102;53.548;9.926;2023-05-02T06:33:34;16.95;;;2.60;;
17953;SDS011;9102;53.548;9.926;2023-05-02T06:36:01;15.63;;;3.95;;
17953;SDS011;9102;53.548;9.926;2023-05-02T06:38:31;18.13;;;4.07;;
17953;SDS011;9102;53.548;9.926;2023-05-02T06:40:58;15.95;;;3.30;;
17953;SDS011;9102;53.548;9.926;2023-05-02T06:43:25;14.90;;;2.58;;
17953;SDS011;9102;53.548;9.926;2023-05-02T06:45:52;14.00;;;2.50;;
17953;SDS011;9102;53.548;9.926;2023-05-02T06:48:21;10.68;;;2.55;;
17953;SDS011;9102;53.548;9.926;2023-05-02T06:50:50;11.20;;;2.13;;
17953;SDS011;9102;53.548;9.926;2023-05-02T06:53:17;11.90;;;2.63;;
17953;SDS011;9102;53.548;9.926;2023-05-02T06:55:45;9.43;;;2.78;;
17953;SDS011;9102;53.548;9.926;2023-05-02T06:58:12;11.57;;;2.78;;
17953;SDS011;9102;53.548;9.926;2023-05-02T07:00:39;10.35;;;3.08;;
17953;SDS011;9102;53.548;9.926;2023-05-02T07:03:06;10.57;;;3.08;;
17953;SDS011;9102;53.548;9.926;2023-05-02T07:05:36;10.32;;;3.05;;
17953;SDS011;9102;53.548;9.926;2023-05-02T07:08:03;9.00;;;2.83;;
17953;SDS011;9102;53.548;9.926;2023-05-02T07:10:31;12.15;;;2.75;;
17953;SDS011;9102;53.548;9.926;2023-05-02T07:12:58;9.82;;;3.22;;
17953;SDS011;9102;53.548;9.926;2023-05-02T07:15:24;8.40;;;2.85;;
17953;SDS011;9102;53.548;9.926;2023-05-02T07:17:51;11.52;;;2.55;;
17953;SDS011;9102;53.548;9.926;2023-05-02T07:20:19;6.85;;;2.10;;
17953;SDS011;9102;53.548;9.926;2023-05-02T07:22:47;8.90;;;2.33;;
17953;SDS011;9102;53.548;9.926;2023-05-02T07:25:14;8.18;;;2.13;;
17953;SDS011;9102;53.548;9.926;2023-05-02T07:27:41;6.00;;;2.10;;
17953;SDS011;9102;53.548;9.926;2023-05-02T07:30:08;9.70;;;2.15;;
17953;SDS011;9102;53.548;9.926;2023-05-02T07:32:36;8.18;;;2.00;;
17953;SDS011;9102;53.548;9.926;2023-05-02T07:35:03;7.80;;;2.00;;
17953;SDS011;9102;53.548;9.926;2023-05-02T07:37:31;10.45;;;2.58;;
17953;SDS011;9102;53.548;9.926;2023-05-02T07:40:00;8.82;;;2.28;;
17953;SDS011;9102;53.548;9.926;2023-05-02T07:42:28;8.70;;;2.33;;
17953;SDS011;9102;53.548;9.926;2023-05-02T07:44:55;9.38;;;2.58;;
17953;SDS011;9102;53.548;9.926;2023-05-02T07:47:22;6.70;;;2.10;;
17953;SDS011;9102;53.548;9.926;2023-05-02T07:49:49;12.85;;;2.78;;
17953;SDS011;9102;53.548;9.926;2023-05-02T07:52:17;7.57;;;2.40;;
17953;SDS011;9102;53.548;9.926;2023-05-02T07:54:44;7.45;;;2.50;;
17953;SDS011;9102;53.548;9.926;2023-05-02T07:57:14;4.22;;;1.88;;
17953;SDS011;9102;53.548;9.926;2023-05-02T07:59:41;9.20;;;2.30;;
17953;SDS011;9102;53.548;9.926;2023-05-02T08:02:08;8.25;;;2.30;;
17953;SDS011;9102;53.548;9.926;2023-05-02T08:04:37;8.65;;;2.20;;
17953;SDS011;9102;53.548;9.926;2023-05-02T08:07:04;11.10;;;2.53;;
17953;SDS011;9102;53.548;9.926;2023-05-02T08:09:30;6.75;;;2.10;;
17953;SDS011;9102;53.548;9.926;2023-05-02T08:11:57;8.13;;;2.33;;
17953;SDS011;9102;53.548;9.926;2023-05-02T08:14:28;12.75;;;2.30;;
17953;SDS011;9102;53.548;9.926;2023-05-02T08:16:55;8.88;;;2.30;;
17953;SDS011;9102;53.548;9.926;2023-05-02T08:19:24;7.85;;;2.13;;
17953;SDS011;9102;53.548;9.926;2023-05-02T08:22:01;12.48;;;2.45;;
17953;SDS011;9102;53.548;9.926;2023-05-02T08:24:28;12.02;;;2.55;;
17953;SDS011;9102;53.548;9.926;2023-05-02T08:27:01;9.02;;;2.10;;
17953;SDS011;9102;53.548;9.926;2023-05-02T08:29:41;7.60;;;2.00;;
17953;SDS011;9102;53.548;9.926;2023-05-02T08:32:16;16.95;;;2.30;;
17953;SDS011;9102;53.548;9.926;2023-05-02T08:34:45;10.23;;;2.22;;
17953;SDS011;9102;53.548;9.926;2023-05-02T08:37:23;10.20;;;2.85;;
17953;SDS011;9102;53.548;9.926;2023-05-02T08:39:50;10.80;;;2.28;;
17953;SDS011;9102;53.548;9.926;2023-05-02T08:42:16;7.78;;;2.10;;
17953;SDS011;9102;53.548;9.926;2023-05-02T08:48:08;11.73;;;2.20;;
17953;SDS011;9102;53.548;9.926;2023-05-02T08:50:47;9.88;;;2.13;;
17953;SDS011;9102;53.548;9.926;2023-05-02T08:53:17;6.13;;;1.50;;
17953;SDS011;9102;53.548;9.926;2023-05-02T08:55:44;8.98;;;1.90;;
17953;SDS011;9102;53.548;9.926;2023-05-02T08:58:13;8.50;;;2.60;;
17953;SDS011;9102;53.548;9.926;2023-05-02T09:00:40;8.82;;;1.77;;
17953;SDS011;9102;53.548;9.926;2023-05-02T09:03:12;5.70;;;1.42;;
17953;SDS011;9102;53.548;9.926;2023-05-02T09:05:49;8.80;;;1.83;;
17953;SDS011;9102;53.548;9.926;2023-05-02T09:08:21;5.53;;;1.33;;
17953;SDS011;9102;53.548;9.926;2023-05-02T09:10:48;9.82;;;1.45;;
17953;SDS011;9102;53.548;9.926;2023-05-02T09:13:29;7.45;;;1.42;;
17953;SDS011;9102;53.548;9.926;2023-05-02T09:15:57;6.72;;;1.40;;
17953;SDS011;9102;53.548;9.926;2023-05-02T09:18:28;9.15;;;1.80;;
17953;SDS011;9102;53.548;9.926;2023-05-02T09:20:57;6.93;;;1.48;;
17953;SDS011;9102;53.548;9.926;2023-05-02T09:23:39;8.32;;;1.40;;
17953;SDS011;9102;53.548;9.926;2023-05-02T09:26:14;4.90;;;1.48;;
17953;SDS011;9102;53.548;9.926;2023-05-02T09:28:43;5.18;;;1.27;;
17953;SDS011;9102;53.548;9.926;2023-05-02T09:31:11;5.20;;;1.40;;
17953;SDS011;9102;53.548;9.926;2023-05-02T09:33:41;5.07;;;1.50;;
17953;SDS011;9102;53.548;9.926;2023-05-02T09:36:11;3.20;;;1.33;;
17953;SDS011;9102;53.548;9.926;2023-05-02T09:38:39;5.07;;;1.50;;
17953;SDS011;9102;53.548;9.926;2023-05-02T09:41:06;6.60;;;1.30;;
17953;SDS011;9102;53.548;9.926;2023-05-02T09:43:33;3.70;;;1.20;;
17953;SDS011;9102;53.548;9.926;2023-05-02T09:46:02;7.63;;;1.27;;
17953;SDS011;9102;53.548;9.926;2023-05-02T09:48:30;5.63;;;1.17;;
17953;SDS011;9102;53.548;9.926;2023-05-02T09:51:00;7.85;;;2.22;;
17953;SDS011;9102;53.548;9.926;2023-05-02T09:53:27;3.67;;;0.98;;
17953;SDS011;9102;53.548;9.926;2023-05-02T09:56:00;3.85;;;1.30;;
17953;SDS011;9102;53.548;9.926;2023-05-02T09:58:28;10.02;;;1.70;;
17953;SDS011;9102;53.548;9.926;2023-05-02T10:00:56;4.30;;;1.10;;
17953;SDS011;9102;53.548;9.926;2023-05-02T10:03:25;7.30;;;1.52;;
17953;SDS011;9102;53.548;9.926;2023-05-02T10:05:53;5.35;;;1.30;;
17953;SDS011;9102;53.548;9.926;2023-05-02T10:08:23;6.93;;;1.50;;
17953;SDS011;9102;53.548;9.926;2023-05-02T10:10:52;9.90;;;2.50;;
17953;SDS011;9102;53.548;9.926;2023-05-02T10:13:22;4.95;;;1.30;;
17953;SDS011;9102;53.548;9.926;2023-05-02T10:15:57;5.55;;;1.55;;
17953;SDS011;9102;53.548;9.926;2023-05-02T10:18:26;6.32;;;1.50;;
17953;SDS011;9102;53.548;9.926;2023-05-02T10:20:58;5.97;;;1.20;;
17953;SDS011;9102;53.548;9.926;2023-05-02T10:23:30;4.13;;;1.30;;
17953;SDS011;9102;53.548;9.926;2023-05-02T10:25:58;5.18;;;1.27;;
17953;SDS011;9102;53.548;9.926;2023-05-02T10:28:25;4.47;;;1.55;;
17953;SDS011;9102;53.548;9.926;2023-05-02T10:30:52;4.97;;;1.20;;
17953;SDS011;9102;53.548;9.926;2023-05-02T10:33:20;5.35;;;1.25;;
17953;SDS011;9102;53.548;9.926;2023-05-02T10:35:47;5.07;;;1.20;;
17953;SDS011;9102;53.548;9.926;2023-05-02T10:38:15;5.28;;;1.30;;
17953;SDS011;9102;53.548;9.926;2023-05-02T10:40:53;3.83;;;1.40;;
17953;SDS011;9102;53.548;9.926;2023-05-02T10:43:25;4.80;;;1.40;;
17953;SDS011;9102;53.548;9.926;2023-05-02T10:45:53;3.40;;;1.30;;
17953;SDS011;9102;53.548;9.926;2023-05-02T10:48:21;7.82;;;1.30;;
17953;SDS011;9102;53.548;9.926;2023-05-02T10:50:54;6.05;;;1.30;;
17953;SDS011;9102;53.548;9.926;2023-05-02T10:53:26;3.42;;;1.48;;
17953;SDS011;9102;53.548;9.926;2023-05-02T10:56:15;7.80;;;1.40;;
17953;SDS011;9102;53.548;9.926;2023-05-02T10:58:45;7.85;;;1.20;;
17953;SDS011;9102;53.548;9.926;2023-05-02T11:01:33;8.85;;;1.13;;
17953;SDS011;9102;53.548;9.926;2023-05-02T11:04:09;4.93;;;1.10;;
17953;SDS011;9102;53.548;9.926;2023-05-02T11:06:37;7.45;;;1.33;;
17953;SDS011;9102;53.548;9.926;2023-05-02T11:09:43;4.57;;;1.20;;
17953;SDS011;9102;53.548;9.926;2023-05-02T11:12:11;5.97;;;1.20;;
17953;SDS011;9102;53.548;9.926;2023-05-02T11:15:11;6.78;;;1.38;;
17953;SDS011;9102;53.548;9.926;2023-05-02T11:20:26;9.07;;;1.42;;
17953;SDS011;9102;53.548;9.926;2023-05-02T11:22:54;6.90;;;1.63;;
17953;SDS011;9102;53.548;9.926;2023-05-02T11:25:29;6.90;;;1.75;;
17953;SDS011;9102;53.548;9.926;2023-05-02T11:27:58;7.72;;;1.65;;
17953;SDS011;9102;53.548;9.926;2023-05-02T11:30:35;5.68;;;1.50;;
17953;SDS011;9102;53.548;9.926;2023-05-02T11:33:10;5.43;;;1.33;;
17953;SDS011;9102;53.548;9.926;2023-05-02T11:35:46;8.05;;;1.80;;
17953;SDS011;9102;53.548;9.926;2023-05-02T11:38:14;5.65;;;1.05;;
17953;SDS011;9102;53.548;9.926;2023-05-02T11:40:50;3.63;;;1.50;;
17953;SDS011;9102;53.548;9.926;2023-05-02T11:43:20;3.83;;;1.38;;
17953;SDS011;9102;53.548;9.926;2023-05-02T11:45:49;9.07;;;1.85;;
17953;SDS011;9102;53.548;9.926;2023-05-02T11:48:16;7.07;;;1.20;;
17953;SDS011;9102;53.548;9.926;2023-05-02T11:50:45;5.50;;;1.23;;
17953;SDS011;9102;53.548;9.926;2023-05-02T11:53:13;6.28;;;1.52;;
17953;SDS011;9102;53.548;9.926;2023-05-02T11:55:45;5.03;;;1.38;;
17953;SDS011;9102;53.548;9.926;2023-05-02T11:58:13;5.97;;;1.00;;
17953;SDS011;9102;53.548;9.926;2023-05-02T12:00:43;5.93;;;1.10;;
17953;SDS011;9102;53.548;9.926;2023-05-02T12:03:21;3.65;;;0.95;;
17953;SDS011;9102;53.548;9.926;2023-05-02T12:05:53;5.03;;;0.82;;
17953;SDS011;9102;53.548;9.926;2023-05-02T12:08:21;8.10;;;1.40;;
17953;SDS011;9102;53.548;9.926;2023-05-02T12:10:49;2.67;;;1.00;;
17953;SDS011;9102;53.548;9.926;2023-05-02T12:13:17;8.10;;;1.50;;
17953;SDS011;9102;53.548;9.926;2023-05-02T12:15:47;6.97;;;2.10;;
17953;SDS011;9102;53.548;9.926;2023-05-02T12:18:16;8.77;;;1.30;;
17953;SDS011;9102;53.548;9.926;2023-05-02T12:20:44;4.38;;;1.40;;
17953;SDS011;9102;53.548;9.926;2023-05-02T12:23:11;3.10;;;1.52;;
17953;SDS011;9102;53.548;9.926;2023-05-02T12:25:39;4.88;;;1.40;;
17953;SDS011;9102;53.548;9.926;2023-05-02T12:39:11;2.90;;;1.27;;
17953;SDS011;9102;53.548;9.926;2023-05-02T12:41:38;22.92;;;10.07;;
17953;SDS011;9102;53.548;9.926;2023-05-02T12:44:07;3.47;;;1.10;;
17953;SDS011;9102;53.548;9.926;2023-05-02T12:46:35;6.65;;;1.20;;
17953;SDS011;9102;53.548;9.926;2023-05-02T12:49:03;3.28;;;1.20;;
17953;SDS011;9102;53.548;9.926;2023-05-02T12:51:32;4.82;;;1.35;;
17953;SDS011;9102;53.548;9.926;2023-05-02T12:53:59;3.13;;;1.02;;
17953;SDS011;9102;53.548;9.926;2023-05-02T12:56:29;2.90;;;0.90;;
17953;SDS011;9102;53.548;9.926;2023-05-02T12:59:06;3.05;;;1.00;;
17953;SDS011;9102;53.548;9.926;2023-05-02T13:01:40;4.38;;;1.10;;
17953;SDS011;9102;53.548;9.926;2023-05-02T13:04:14;4.65;;;1.25;;
17953;SDS011;9102;53.548;9.926;2023-05-02T13:06:45;2.38;;;1.10;;
17953;SDS011;9102;53.548;9.926;2023-05-02T13:09:12;7.70;;;1.00;;
17953;SDS011;9102;53.548;9.926;2023-05-02T13:12:00;4.20;;;1.20;;
17953;SDS011;9102;53.548;9.926;2023-05-02T13:14:34;7.82;;;1.15;;
17953;SDS011;9102;53.548;9.926;2023-05-02T13:17:01;4.82;;;1.30;;
17953;SDS011;9102;53.548;9.926;2023-05-02T13:19:28;7.78;;;1.08;;
17953;SDS011;9102;53.548;9.926;2023-05-02T13:21:55;4.50;;;1.17;;
17953;SDS011;9102;53.548;9.926;2023-05-02T13:24:22;4.80;;;1.27;;
17953;SDS011;9102;53.548;9.926;2023-05-02T13:26:49;7.65;;;1.35;;
17953;SDS011;9102;53.548;9.926;2023-05-02T13:29:17;3.70;;;1.45;;
17953;SDS011;9102;53.548;9.926;2023-05-02T13:31:44;7.47;;;1.30;;
17953;SDS011;9102;53.548;9.926;2023-05-02T13:34:15;5.82;;;1.30;;
17953;SDS011;9102;53.548;9.926;2023-05-02T13:36:43;4.25;;;1.58;;
17953;SDS011;9102;53.548;9.926;2023-05-02T13:39:10;9.40;;;1.63;;
17953;SDS011;9102;53.548;9.926;2023-05-02T13:41:40;11.38;;;1.80;;
17953;SDS011;9102;53.548;9.926;2023-05-02T13:44:07;7.47;;;1.73;;
17953;SDS011;9102;53.548;9.926;2023-05-02T13:46:39;7.20;;;1.42;;
17953;SDS011;9102;53.548;9.926;2023-05-02T13:49:08;5.93;;;1.38;;
17953;SDS011;9102;53.548;9.926;2023-05-02T13:51:37;4.53;;;1.45;;
17953;SDS011;9102;53.548;9.926;2023-05-02T13:54:08;4.45;;;1.38;;
17953;SDS011;9102;53.548;9.926;2023-05-02T13:56:35;9.30;;;1.98;;
17953;SDS011;9102;53.548;9.926;2023-05-02T13:59:03;5.88;;;1.45;;
17953;SDS011;9102;53.548;9.926;2023-05-02T14:01:30;7.10;;;1.70;;
17953;SDS011;9102;53.548;9.926;2023-05-02T14:04:02;10.75;;;1.65;;
17953;SDS011;9102;53.548;9.926;2023-05-02T14:06:32;8.65;;;1.60;;
17953;SDS011;9102;53.548;9.926;2023-05-02T14:09:02;5.07;;;1.58;;
17953;SDS011;9102;53.548;9.926;2023-05-02T14:11:31;6.75;;;1.67;;
17953;SDS011;9102;53.548;9.926;2023-05-02T14:13:58;5.18;;;1.63;;
17953;SDS011;9102;53.548;9.926;2023-05-02T14:16:25;3.45;;;1.20;;
17953;SDS011;9102;53.548;9.926;2023-05-02T14:18:57;6.07;;;1.73;;
17953;SDS011;9102;53.548;9.926;2023-05-02T14:21:25;4.07;;;1.23;;
17953;SDS011;9102;53.548;9.926;2023-05-02T14:23:52;6.05;;;1.33;;
17953;SDS011;9102;53.548;9.926;2023-05-02T14:26:19;6.35;;;1.33;;
17953;SDS011;9102;53.548;9.926;2023-05-02T14:28:46;5.20;;;1.35;;
17953;SDS011;9102;53.548;9.926;2023-05-02T14:31:13;8.05;;;2.30;;
17953;SDS011;9102;53.548;9.926;2023-05-02T14:33:39;12.27;;;1.77;;
17953;SDS011;9102;53.548;9.926;2023-05-02T14:36:06;5.30;;;1.27;;
17953;SDS011;9102;53.548;9.926;2023-05-02T14:38:34;6.07;;;1.27;;
17953;SDS011;9102;53.548;9.926;2023-05-02T14:41:01;6.93;;;1.17;;
17953;SDS011;9102;53.548;9.926;2023-05-02T14:43:30;7.82;;;1.58;;
17953;SDS011;9102;53.548;9.926;2023-05-02T14:45:57;3.45;;;1.30;;
17953;SDS011;9102;53.548;9.926;2023-05-02T14:48:26;4.63;;;1.55;;
17953;SDS011;9102;53.548;9.926;2023-05-02T14:50:53;5.25;;;1.75;;
17953;SDS011;9102;53.548;9.926;2023-05-02T14:53:20;6.03;;;1.60;;
17953;SDS011;9102;53.548;9.926;2023-05-02T14:55:48;6.07;;;1.08;;
17953;SDS011;9102;53.548;9.926;2023-05-02T14:58:15;6.22;;;1.30;;
17953;SDS011;9102;53.548;9.926;2023-05-02T15:00:44;7.13;;;1.20;;
17953;SDS011;9102;53.548;9.926;2023-05-02T15:03:12;4.63;;;1.27;;
17953;SDS011;9102;53.548;9.926;2023-05-02T15:05:39;6.05;;;1.00;;
17953;SDS011;9102;53.548;9.926;2023-05-02T15:08:05;9.35;;;1.27;;
17953;SDS011;9102;53.548;9.926;2023-05-02T15:10:35;3.90;;;1.00;;
17953;SDS011;9102;53.548;9.926;2023-05-02T15:13:03;7.05;;;1.30;;
17953;SDS011;9102;53.548;9.926;2023-05-02T15:15:31;7.70;;;1.45;;
17953;SDS011;9102;53.548;9.926;2023-05-02T15:17:58;4.60;;;1.40;;
17953;SDS011;9102;53.548;9.926;2023-05-02T15:20:24;7.90;;;1.42;;
17953;SDS011;9102;53.548;9.926;2023-05-02T15:22:51;5.45;;;1.20;;
17953;SDS011;9102;53.548;9.926;2023-05-02T15:25:18;5.00;;;1.10;;